Xekmatt — OR2473 — position and weather

sailwx.info

Track history (hours):
 
Tides and Currents Weather Stations Pressure Air Temp Water Temp Dewpoint Dewpoint Depression Visibility Wind Speed Wind Dir Waves Ship Positions

Xekmatt

Last reported at 2015-Jul-24 17:33 UTC. Time now 2015-Aug-03 17:12 UTC.
Position N 38°42' W 009°10'.
Warning: this ship's position is 9 days out of date.

Length 14 m.

Type: Sailing vessel. MMSI: 205247310.

Date/timePositionNaut miles runAvg speedWind from/ knotsBaromVisibWave heightAir tempDewpointWater temp
2015-Jul-24 17:33N 38°42' W 009°10'1 0.7
2015-Jul-24 16:32N 38°42' W 009°09'  
2015-Jul-20 19:33N 38°42' W 009°10'3 2.4
2015-Jul-20 18:30N 38°41' W 009°13'7 6.8
2015-Jul-20 17:30N 38°41' W 009°22'6 6.6
2015-Jul-20 16:33N 38°43' W 009°29'8 7.6
2015-Jul-20 15:33N 38°50' W 009°31'8 8.1
2015-Jul-20 14:33N 38°58' W 009°31'7 7.3
2015-Jul-20 13:32N 39°06' W 009°31'4 3.7
2015-Jul-20 12:33N 39°08' W 009°27'  
2015-Jul-15 00:15N 39°12' W 009°28'4 5.9
2015-Jul-14 23:30N 39°07' W 009°29'6 6.2
2015-Jul-14 22:33N 39°01' W 009°30'6 5.9
2015-Jul-14 21:33N 38°56' W 009°32'6 5.9
2015-Jul-14 20:32N 38°50' W 009°35'4 3.8
2015-Jul-14 19:33N 38°47' W 009°38'4 3.8
2015-Jul-14 18:33N 38°44' W 009°35'5 5.1
2015-Jul-14 17:33N 38°42' W 009°29'  
Track history (hours):
 
Tides and Currents Weather Stations Pressure Air Temp Water Temp Dewpoint Dewpoint Depression Visibility Wind Speed Wind Dir Waves Ship Positions

Xekmatt

Last reported at 2015-Jul-24 17:33 UTC. Time now 2015-Aug-03 17:12 UTC.
Position N 38°42' W 009°10'.
Warning: this ship's position is 9 days out of date.

Length 14 m.

Type: Sailing vessel. MMSI: 205247310.

Date/timePositionNaut miles runAvg speedWind from/ knotsBaromVisibWave heightAir tempDewpointWater temp
2015-Jul-24 17:33N 38°42' W 009°10'1 0.7
2015-Jul-24 16:32N 38°42' W 009°09'  
2015-Jul-20 19:33N 38°42' W 009°10'3 2.4
2015-Jul-20 18:30N 38°41' W 009°13'7 6.8
2015-Jul-20 17:30N 38°41' W 009°22'6 6.6
2015-Jul-20 16:33N 38°43' W 009°29'8 7.6
2015-Jul-20 15:33N 38°50' W 009°31'8 8.1
2015-Jul-20 14:33N 38°58' W 009°31'7 7.3
2015-Jul-20 13:32N 39°06' W 009°31'4 3.7
2015-Jul-20 12:33N 39°08' W 009°27'  
2015-Jul-15 00:15N 39°12' W 009°28'4 5.9
2015-Jul-14 23:30N 39°07' W 009°29'6 6.2
2015-Jul-14 22:33N 39°01' W 009°30'6 5.9
2015-Jul-14 21:33N 38°56' W 009°32'6 5.9
2015-Jul-14 20:32N 38°50' W 009°35'4 3.8
2015-Jul-14 19:33N 38°47' W 009°38'4 3.8
2015-Jul-14 18:33N 38°44' W 009°35'5 5.1
2015-Jul-14 17:33N 38°42' W 009°29'  

Dump ship's entire track history